Ocean Celebrity — HOSZ — position and weather

sailwx.info

Track history (hours):
 
Tides and Currents Weather Stations Pressure Air Temp Water Temp Dewpoint Dewpoint Depression Visibility Wind Speed Wind Dir Waves Ship Positions

Ocean Celebrity

Last reported at 2018-Apr-25 12:31 UTC. Time now 2018-Apr-25 12:44 UTC.
Position S 33°14' E 152°02'.

Length 289 m; draft 8.7 m.

Type: Cargo ship. MMSI: 356712000.

Date/timePositionNaut miles runAvg speedWind from/ knotsBaromVisibWave heightAir tempDewpointWater temp
2018-Apr-25 12:31S 33°14' E 152°02'0 0.9
2018-Apr-25 12:00S 33°15' E 152°03'0 0.8
2018-Apr-25 11:30S 33°15' E 152°03'0 0.7
2018-Apr-25 11:00S 33°15' E 152°03'0 0.7
2018-Apr-25 10:31S 33°16' E 152°03'0 0.6
2018-Apr-25 10:00S 33°16' E 152°04'0 0.6
2018-Apr-25 09:31S 33°16' E 152°04'0 0.6
2018-Apr-25 09:00S 33°16' E 152°04'0 0.5
2018-Apr-25 08:30S 33°16' E 152°05'0 0.4
2018-Apr-25 08:01S 33°16' E 152°05'0 0.4
2018-Apr-25 07:31S 33°16' E 152°05'0 0.4
2018-Apr-25 07:00S 33°16' E 152°05'0 0.4
2018-Apr-25 06:18S 33°16' E 152°06'0 0.7
2018-Apr-25 05:52S 33°16' E 152°06'0 0.5
2018-Apr-25 05:09S 33°16' E 152°06'0 0.7
2018-Apr-25 04:58S 33°16' E 152°06'1 1.4
2018-Apr-25 04:22S 33°15' E 152°07'0 1.2
2018-Apr-25 04:00S 33°15' E 152°07'0 0.8
2018-Apr-25 03:31S 33°15' E 152°08'0 0.9
2018-Apr-25 03:01S 33°14' E 152°08'0 0.9
2018-Apr-25 02:31S 33°14' E 152°09'2 1.3
2018-Apr-25 01:18S 33°13' E 152°10'0 1.7
2018-Apr-25 01:01S 33°13' E 152°11'1 1.5
2018-Apr-25 00:30S 33°13' E 152°11'1 1.6
2018-Apr-25 00:01S 33°12' E 152°12'1 1.8
2018-Apr-24 23:30S 33°11' E 152°13'1 1.8
2018-Apr-24 23:00S 33°11' E 152°14'2 2.2
2018-Apr-24 22:08S 33°09' E 152°14'1 7.4
2018-Apr-24 22:01S 33°08' E 152°14'510.7
2018-Apr-24 21:30S 33°06' E 152°08'510.5
2018-Apr-24 21:01S 33°03' E 152°03'1 1.9
2018-Apr-24 20:31S 33°03' E 152°02'1 2.5
2018-Apr-24 20:00S 33°03' E 152°03'1 2.3
2018-Apr-24 19:31S 33°04' E 152°04'1 1.9
2018-Apr-24 19:01S 33°04' E 152°05'1 2.1
2018-Apr-24 18:31S 33°05' E 152°06'1 1.9
2018-Apr-24 18:00S 33°05' E 152°07'1 1.9
2018-Apr-24 17:31S 33°06' E 152°08'1 1.7
2018-Apr-24 17:01S 33°06' E 152°09'1 1.6
2018-Apr-24 16:31S 33°06' E 152°10'1 1.6
2018-Apr-24 16:01S 33°06' E 152°11'0 0.8
2018-Apr-24 15:31S 33°07' E 152°11'0 0.8
2018-Apr-24 15:01S 33°07' E 152°12'1 1.0
2018-Apr-24 14:31S 33°07' E 152°12'1 1.1
2018-Apr-24 14:01S 33°07' E 152°13'1 1.0
2018-Apr-24 13:31S 33°07' E 152°13'1 1.0
2018-Apr-24 13:01S 33°07' E 152°14'0 0.9
2018-Apr-24 12:31S 33°07' E 152°14'0 0.9
2018-Apr-24 11:57S 33°07' E 152°14'3 7.7
2018-Apr-24 11:31S 33°04' E 152°11'611.2
2018-Apr-24 11:01S 33°00' E 152°07'4 9.0
2018-Apr-24 10:31S 32°57' E 152°04'1 1.3
2018-Apr-24 10:01S 32°57' E 152°04'1 1.2
2018-Apr-24 09:31S 32°58' E 152°04'1 1.3
2018-Apr-24 09:01S 32°58' E 152°04'1 1.2
2018-Apr-24 08:31S 32°59' E 152°04'1 1.4
2018-Apr-24 08:00S 32°60' E 152°04'1 1.5
2018-Apr-24 07:31S 33°00' E 152°04'1 1.4
2018-Apr-24 07:01S 33°01' E 152°04'0 1.0
2018-Apr-24 06:31S 33°02' E 152°04'1 2.7
2018-Apr-24 06:00S 33°00' E 152°03'4 8.4
2018-Apr-24 05:30S 32°57' E 152°00'  
Track history (hours):
 
Tides and Currents Weather Stations Pressure Air Temp Water Temp Dewpoint Dewpoint Depression Visibility Wind Speed Wind Dir Waves Ship Positions

Ocean Celebrity

Last reported at 2018-Apr-25 12:31 UTC. Time now 2018-Apr-25 12:44 UTC.
Position S 33°14' E 152°02'.

Length 289 m; draft 8.7 m.

Type: Cargo ship. MMSI: 356712000.

Date/timePositionNaut miles runAvg speedWind from/ knotsBaromVisibWave heightAir tempDewpointWater temp
2018-Apr-25 12:31S 33°14' E 152°02'0 0.9
2018-Apr-25 12:00S 33°15' E 152°03'0 0.8
2018-Apr-25 11:30S 33°15' E 152°03'0 0.7
2018-Apr-25 11:00S 33°15' E 152°03'0 0.7
2018-Apr-25 10:31S 33°16' E 152°03'0 0.6
2018-Apr-25 10:00S 33°16' E 152°04'0 0.6
2018-Apr-25 09:31S 33°16' E 152°04'0 0.6
2018-Apr-25 09:00S 33°16' E 152°04'0 0.5
2018-Apr-25 08:30S 33°16' E 152°05'0 0.4
2018-Apr-25 08:01S 33°16' E 152°05'0 0.4
2018-Apr-25 07:31S 33°16' E 152°05'0 0.4
2018-Apr-25 07:00S 33°16' E 152°05'0 0.4
2018-Apr-25 06:18S 33°16' E 152°06'0 0.7
2018-Apr-25 05:52S 33°16' E 152°06'0 0.5
2018-Apr-25 05:09S 33°16' E 152°06'0 0.7
2018-Apr-25 04:58S 33°16' E 152°06'1 1.4
2018-Apr-25 04:22S 33°15' E 152°07'0 1.2
2018-Apr-25 04:00S 33°15' E 152°07'0 0.8
2018-Apr-25 03:31S 33°15' E 152°08'0 0.9
2018-Apr-25 03:01S 33°14' E 152°08'0 0.9
2018-Apr-25 02:31S 33°14' E 152°09'2 1.3
2018-Apr-25 01:18S 33°13' E 152°10'0 1.7
2018-Apr-25 01:01S 33°13' E 152°11'1 1.5
2018-Apr-25 00:30S 33°13' E 152°11'1 1.6
2018-Apr-25 00:01S 33°12' E 152°12'1 1.8
2018-Apr-24 23:30S 33°11' E 152°13'1 1.8
2018-Apr-24 23:00S 33°11' E 152°14'2 2.2
2018-Apr-24 22:08S 33°09' E 152°14'1 7.4
2018-Apr-24 22:01S 33°08' E 152°14'510.7
2018-Apr-24 21:30S 33°06' E 152°08'510.5
2018-Apr-24 21:01S 33°03' E 152°03'1 1.9
2018-Apr-24 20:31S 33°03' E 152°02'1 2.5
2018-Apr-24 20:00S 33°03' E 152°03'1 2.3
2018-Apr-24 19:31S 33°04' E 152°04'1 1.9
2018-Apr-24 19:01S 33°04' E 152°05'1 2.1
2018-Apr-24 18:31S 33°05' E 152°06'1 1.9
2018-Apr-24 18:00S 33°05' E 152°07'1 1.9
2018-Apr-24 17:31S 33°06' E 152°08'1 1.7
2018-Apr-24 17:01S 33°06' E 152°09'1 1.6
2018-Apr-24 16:31S 33°06' E 152°10'1 1.6
2018-Apr-24 16:01S 33°06' E 152°11'0 0.8
2018-Apr-24 15:31S 33°07' E 152°11'0 0.8
2018-Apr-24 15:01S 33°07' E 152°12'1 1.0
2018-Apr-24 14:31S 33°07' E 152°12'1 1.1
2018-Apr-24 14:01S 33°07' E 152°13'1 1.0
2018-Apr-24 13:31S 33°07' E 152°13'1 1.0
2018-Apr-24 13:01S 33°07' E 152°14'0 0.9
2018-Apr-24 12:31S 33°07' E 152°14'0 0.9
2018-Apr-24 11:57S 33°07' E 152°14'3 7.7
2018-Apr-24 11:31S 33°04' E 152°11'611.2
2018-Apr-24 11:01S 33°00' E 152°07'4 9.0
2018-Apr-24 10:31S 32°57' E 152°04'1 1.3
2018-Apr-24 10:01S 32°57' E 152°04'1 1.2
2018-Apr-24 09:31S 32°58' E 152°04'1 1.3
2018-Apr-24 09:01S 32°58' E 152°04'1 1.2
2018-Apr-24 08:31S 32°59' E 152°04'1 1.4
2018-Apr-24 08:00S 32°60' E 152°04'1 1.5
2018-Apr-24 07:31S 33°00' E 152°04'1 1.4
2018-Apr-24 07:01S 33°01' E 152°04'0 1.0
2018-Apr-24 06:31S 33°02' E 152°04'1 2.7
2018-Apr-24 06:00S 33°00' E 152°03'4 8.4
2018-Apr-24 05:30S 32°57' E 152°00'  

Dump ship's entire track history